Time;durP1;ratioP1;P1;durP2;ratioP2;P2;SDS_P1;SDS_P2;PMS_P1;PMS_P2;Temp;Humidity;BMP_temperature;BMP_pressure;BME280_temperature;BME280_humidity;BME280_pressure;Samples;Min_cycle;Max_cycle;Signal;HPM_P1;HPM_P2
2021/06/11 00:01:35;;;;;;;7.47;5.03;;;487.30;2380.80;;;;;;5033487;28;20059;-83
2021/06/11 00:04:01;;;;;;;6.47;4.20;;;487.30;2380.80;;;;;;5033596;28;20027;-83
2021/06/11 00:06:27;;;;;;;6.45;4.55;;;487.30;2380.80;;;;;;5033728;28;20029;-82
2021/06/11 00:08:53;;;;;;;7.15;4.07;;;487.30;2380.80;;;;;;5033526;28;20364;-82
2021/06/11 00:11:19;;;;;;;6.35;4.47;;;487.30;2380.80;;;;;;5035001;28;20098;-84
2021/06/11 00:13:44;;;;;;;6.35;5.40;;;487.30;2380.80;;;;;;5033689;28;20033;-83
2021/06/11 00:16:10;;;;;;;8.30;5.10;;;487.00;2380.80;;;;;;5033150;28;20112;-84
2021/06/11 00:18:36;;;;;;;8.88;4.78;;;487.00;2380.80;;;;;;5033145;28;20092;-82
2021/06/11 00:21:02;;;;;;;6.57;4.43;;;487.00;2380.80;;;;;;5034623;28;20342;-82
2021/06/11 00:23:28;;;;;;;8.75;4.70;;;487.10;2380.80;;;;;;5033314;28;20499;-83
2021/06/11 00:25:55;;;;;;;7.10;4.97;;;487.00;2380.80;;;;;;5033463;28;20021;-82
2021/06/11 00:28:21;;;;;;;7.65;4.50;;;487.10;2380.80;;;;;;5033718;28;20021;-82
2021/06/11 00:30:46;;;;;;;6.60;4.57;;;487.10;2380.80;;;;;;5033322;28;20112;-83
2021/06/11 00:33:12;;;;;;;7.95;4.55;;;486.80;2380.80;;;;;;5034095;28;20377;-82
2021/06/11 00:35:38;;;;;;;6.43;5.05;;;486.80;2380.80;;;;;;5033920;28;20437;-82
2021/06/11 00:38:05;;;;;;;7.00;5.00;;;486.80;2380.80;;;;;;5034021;28;20024;-83
2021/06/11 00:40:32;;;;;;;7.32;5.20;;;486.70;2380.80;;;;;;5034586;28;20020;-82
2021/06/11 00:42:58;;;;;;;6.32;4.68;;;486.80;2380.80;;;;;;5033036;28;20453;-83
2021/06/11 00:45:24;;;;;;;6.95;5.32;;;486.80;2380.80;;;;;;5032858;28;20045;-81
2021/06/11 00:47:50;;;;;;;8.90;5.15;;;486.60;2380.80;;;;;;5033110;28;20028;-81
2021/06/11 00:50:23;;;;;;;6.32;4.82;;;486.60;2380.80;;;;;;5033134;28;20025;-82
2021/06/11 00:52:54;;;;;;;6.85;5.20;;;486.40;2380.80;;;;;;5032873;28;20025;-83
2021/06/11 00:55:21;;;;;;;9.35;5.65;;;486.60;2380.80;;;;;;5032993;28;20026;-82
2021/06/11 00:57:48;;;;;;;8.45;5.95;;;486.90;2380.80;;;;;;5034133;28;20021;-83
2021/06/11 01:00:14;;;;;;;5.90;5.07;;;461.40;2380.80;;;;;;5033845;28;20017;-83
2021/06/11 01:02:40;;;;;;;8.95;5.20;;;460.80;2380.80;;;;;;5032118;28;20132;-81
2021/06/11 01:05:08;;;;;;;8.52;5.68;;;461.40;2380.80;;;;;;5032635;28;20159;-83
2021/06/11 01:07:37;;;;;;;6.00;5.03;;;461.50;2380.80;;;;;;5032882;28;20048;-82
2021/06/11 01:10:04;;;;;;;6.60;5.07;;;461.70;2380.80;;;;;;5032819;28;20515;-84
2021/06/11 01:12:30;;;;;;;8.23;5.25;;;461.50;2380.80;;;;;;5032427;28;20369;-83
2021/06/11 01:14:56;;;;;;;12.13;6.68;;;461.50;2380.80;;;;;;5032686;28;20028;-83
2021/06/11 01:17:22;;;;;;;6.15;5.30;;;461.50;2380.80;;;;;;5032829;28;20028;-83
2021/06/11 01:19:49;;;;;;;8.63;5.93;;;461.50;2380.80;;;;;;5032451;28;20342;-82
2021/06/11 01:22:31;;;;;;;6.45;5.38;;;461.50;2380.80;;;;;;5032623;28;20033;-82
2021/06/11 01:25:10;;;;;;;6.40;5.28;;;461.50;2380.80;;;;;;5032882;28;20021;-82
2021/06/11 01:27:38;;;;;;;9.32;5.18;;;461.60;2380.80;;;;;;5032426;28;20464;-83
2021/06/11 01:30:10;;;;;;;7.20;5.20;;;461.30;2380.80;;;;;;5032625;28;20029;-82
2021/06/11 01:32:40;;;;;;;6.40;5.20;;;461.30;2380.80;;;;;;5032795;28;20029;-83
2021/06/11 01:35:30;;;;;;;7.30;5.53;;;461.20;2380.80;;;;;;5032251;28;20122;-82
2021/06/11 01:38:00;;;;;;;7.65;5.25;;;461.40;2380.80;;;;;;5031749;28;20120;-83
2021/06/11 01:40:26;;;;;;;6.65;5.68;;;461.50;2380.80;;;;;;5033467;28;20026;-83
2021/06/11 01:42:54;;;;;;;9.75;6.20;;;461.50;2380.80;;;;;;5032443;28;20033;-81
2021/06/11 01:45:20;;;;;;;10.60;6.00;;;486.80;2380.80;;;;;;5032543;28;20116;-82
2021/06/11 01:47:49;;;;;;;9.27;6.15;;;461.50;2380.80;;;;;;5032476;28;20356;-82
2021/06/11 01:50:19;;;;;;;9.30;6.00;;;461.20;2380.80;;;;;;5036149;28;20025;-82
2021/06/11 01:52:46;;;;;;;7.28;6.00;;;461.20;2380.80;;;;;;5036088;28;20025;-82
2021/06/11 01:55:13;;;;;;;8.15;5.82;;;461.40;2380.80;;;;;;5037103;28;20021;-82
2021/06/11 01:57:42;;;;;;;7.63;5.63;;;461.40;2380.80;;;;;;5036026;28;20083;-83
2021/06/11 02:00:09;;;;;;;8.07;5.82;;;461.40;2380.80;;;;;;5035913;28;20464;-83
2021/06/11 02:02:37;;;;;;;14.20;6.93;;;461.10;2380.80;;;;;;5035548;28;20491;-83
2021/06/11 02:05:06;;;;;;;7.93;6.10;;;461.00;2380.80;;;;;;5035978;28;20053;-82
2021/06/11 02:07:34;;;;;;;7.43;6.28;;;461.10;2380.80;;;;;;5035870;28;20021;-83
2021/06/11 02:10:01;;;;;;;7.75;6.07;;;461.10;2380.80;;;;;;5035642;28;20022;-82
2021/06/11 02:12:27;;;;;;;8.40;6.45;;;461.40;2380.80;;;;;;5035827;28;20033;-81
2021/06/11 02:14:53;;;;;;;9.98;5.75;;;461.30;2380.80;;;;;;5035516;28;20017;-81
2021/06/11 02:17:19;;;;;;;10.32;6.80;;;461.20;2380.80;;;;;;5035713;28;20026;-82
2021/06/11 02:19:46;;;;;;;9.32;6.47;;;461.20;2380.80;;;;;;5035748;28;20026;-83
2021/06/11 02:22:14;;;;;;;10.27;7.00;;;461.30;2380.80;;;;;;5034979;28;20034;-81
2021/06/11 02:24:40;;;;;;;11.27;6.90;;;461.40;2380.80;;;;;;5035490;28;20445;-81
2021/06/11 02:27:08;;;;;;;8.48;6.40;;;461.50;2380.80;;;;;;5035606;28;20025;-81
2021/06/11 02:29:34;;;;;;;14.13;6.88;;;461.50;2380.80;;;;;;5035295;28;20361;-83
2021/06/11 02:32:01;;;;;;;9.57;6.65;;;461.40;2380.80;;;;;;5035512;28;20112;-80
2021/06/11 02:34:28;;;;;;;11.57;6.63;;;461.40;2380.80;;;;;;5035532;28;20027;-80
2021/06/11 02:36:54;;;;;;;8.85;7.05;;;461.40;2380.80;;;;;;5035119;28;20028;-81
2021/06/11 02:39:20;;;;;;;10.05;6.70;;;461.40;2380.80;;;;;;5035249;28;20361;-81
2021/06/11 02:41:55;;;;;;;8.95;6.63;;;461.40;2380.80;;;;;;5035041;28;20029;-80
2021/06/11 02:44:23;;;;;;;8.75;6.45;;;461.50;2380.80;;;;;;5035442;28;20068;-81
2021/06/11 02:47:04;;;;;;;10.75;6.95;;;461.50;2380.80;;;;;;5035269;28;20025;-81
2021/06/11 02:49:45;;;;;;;10.13;7.05;;;461.50;2380.80;;;;;;5035237;28;20022;-80
2021/06/11 02:52:11;;;;;;;8.05;6.50;;;461.60;2380.80;;;;;;5034745;28;20037;-81
2021/06/11 02:54:44;;;;;;;7.20;6.22;;;461.50;2380.80;;;;;;5034954;28;20083;-80
2021/06/11 02:57:13;;;;;;;9.20;6.35;;;461.50;2380.80;;;;;;5034714;28;20351;-81
2021/06/11 02:59:53;;;;;;;11.32;6.93;;;461.50;2380.80;;;;;;5035942;28;20078;-82
2021/06/11 03:02:29;;;;;;;9.80;7.07;;;461.70;2380.80;;;;;;5034417;28;20038;-80
2021/06/11 03:04:56;;;;;;;11.68;6.53;;;461.70;2380.80;;;;;;5035819;28;20109;-81
2021/06/11 03:07:28;;;;;;;11.45;6.90;;;461.70;2380.80;;;;;;5034848;28;20022;-82
2021/06/11 03:09:57;;;;;;;;;;;461.70;2380.80;;;;;;5035295;28;20017;-81
2021/06/11 03:12:25;;;;;;;9.45;6.45;;;461.40;2380.80;;;;;;5034529;28;19901;-82
2021/06/11 03:14:52;;;;;;;8.98;6.82;;;461.10;2380.80;;;;;;5034894;28;20017;-83
2021/06/11 03:17:21;;;;;;;13.60;7.47;;;460.80;2380.80;;;;;;5035018;28;20021;-83
2021/06/11 03:19:54;;;;;;;10.75;6.30;;;436.00;2355.20;;;;;;5034580;28;20018;-82
2021/06/11 03:22:28;;;;;;;11.18;6.63;;;436.10;2355.20;;;;;;5034748;28;20036;-82
2021/06/11 03:25:04;;;;;;;10.75;7.45;;;460.80;2380.80;;;;;;5034700;28;20102;-81
2021/06/11 03:27:52;;;;;;;8.50;7.18;;;436.10;2355.20;;;;;;5034389;28;20029;-82
2021/06/11 03:30:22;;;;;;;15.90;8.88;;;436.10;2355.20;;;;;;5034879;28;20106;-82
2021/06/11 03:32:55;;;;;;;10.35;6.72;;;436.10;2355.20;;;;;;5034266;28;20164;-82
2021/06/11 03:35:25;;;;;;;8.85;6.47;;;435.90;2355.20;;;;;;5034413;28;20029;-83
2021/06/11 03:37:54;;;;;;;10.13;6.63;;;435.90;2355.20;;;;;;5034356;28;20072;-82
2021/06/11 03:40:24;;;;;;;12.18;7.35;;;436.10;2355.20;;;;;;5034043;28;20385;-83
2021/06/11 03:42:54;;;;;;;8.20;6.75;;;460.80;2380.80;;;;;;5034220;28;20030;-82
2021/06/11 03:45:21;;;;;;;11.05;6.75;;;460.80;2380.80;;;;;;5034159;28;20025;-83
2021/06/11 03:47:48;;;;;;;11.52;7.28;;;460.90;2380.80;;;;;;5033939;28;20021;-81
2021/06/11 03:50:22;;;;;;;9.52;6.63;;;460.90;2380.80;;;;;;5034146;28;20021;-83
2021/06/11 03:52:50;;;;;;;10.98;7.25;;;461.00;2380.80;;;;;;5034038;28;20453;-83
2021/06/11 03:55:25;;;;;;;10.13;6.45;;;461.00;2380.80;;;;;;5033966;28;20459;-84
2021/06/11 03:58:30;;;;;;;8.77;7.20;;;461.20;2380.80;;;;;;5034169;28;20116;-83
2021/06/11 04:00:58;;;;;;;9.30;7.05;;;461.40;2380.80;;;;;;5032876;28;20034;-82
2021/06/11 04:03:24;;;;;;;12.18;7.15;;;461.40;2380.80;;;;;;5037232;28;20024;-83
2021/06/11 04:06:01;;;;;;;11.98;7.10;;;461.50;2380.80;;;;;;5037188;28;20444;-83
2021/06/11 04:08:33;;;;;;;9.57;7.68;;;461.50;2380.80;;;;;;5037052;28;20021;-82
2021/06/11 04:10:59;;;;;;;8.63;7.50;;;461.30;2380.80;;;;;;5036680;28;20068;-82
2021/06/11 04:13:42;;;;;;;12.18;7.30;;;486.50;2380.80;;;;;;5037010;28;20455;-84
2021/06/11 04:16:14;;;;;;;10.93;7.47;;;461.40;2380.80;;;;;;5037031;28;20021;-82
2021/06/11 04:18:42;;;;;;;12.63;8.30;;;461.40;2380.80;;;;;;5037023;28;20021;-82
2021/06/11 04:21:11;;;;;;;10.68;7.60;;;461.40;2380.80;;;;;;5036609;28;20257;-83
2021/06/11 04:23:40;;;;;;;10.38;7.25;;;461.50;2380.80;;;;;;5036699;28;20021;-82
2021/06/11 04:26:08;;;;;;;10.68;7.57;;;461.50;2380.80;;;;;;5036695;28;20021;-82
2021/06/11 04:28:35;;;;;;;9.50;7.25;;;461.50;2380.80;;;;;;5036503;28;20063;-83
2021/06/11 04:31:01;;;;;;;9.30;8.30;;;461.60;2380.80;;;;;;5036815;28;20025;-83
2021/06/11 04:33:29;;;;;;;13.25;8.60;;;461.50;2380.80;;;;;;5036596;28;20021;-84
2021/06/11 04:35:55;;;;;;;11.48;9.05;;;461.60;2380.80;;;;;;5036511;28;20029;-82
2021/06/11 04:38:22;;;;;;;11.68;7.90;;;461.40;2380.80;;;;;;5036672;28;20017;-83
2021/06/11 04:40:49;;;;;;;12.70;8.75;;;461.60;2380.80;;;;;;5036425;28;20025;-82
2021/06/11 04:43:15;;;;;;;11.43;9.32;;;461.30;2380.80;;;;;;5036389;28;20039;-83
2021/06/11 04:45:41;;;;;;;14.20;8.50;;;461.20;2380.80;;;;;;5036369;28;20021;-84
2021/06/11 04:48:08;;;;;;;14.95;9.18;;;461.40;2380.80;;;;;;5036696;28;20071;-83
2021/06/11 04:50:34;;;;;;;13.30;8.80;;;461.40;2380.80;;;;;;5036781;28;20070;-84
2021/06/11 04:53:00;;;;;;;11.70;8.65;;;486.70;2380.80;;;;;;5036439;28;20542;-85
2021/06/11 04:55:26;;;;;;;14.05;9.57;;;461.40;2380.80;;;;;;5036203;28;20074;-85
2021/06/11 04:57:54;;;;;;;13.27;8.43;;;461.50;2380.80;;;;;;5036023;28;20021;-85
2021/06/11 05:00:21;;;;;;;13.77;8.95;;;461.50;2380.80;;;;;;5036255;28;20017;-85
2021/06/11 05:02:46;;;;;;;11.70;8.13;;;461.50;2380.80;;;;;;5032804;28;20050;-83
2021/06/11 05:05:12;;;;;;;15.57;9.40;;;486.40;2380.80;;;;;;5032833;28;20033;-84
2021/06/11 05:07:38;;;;;;;11.15;9.15;;;486.40;2380.80;;;;;;5033025;28;20040;-83
2021/06/11 05:10:05;;;;;;;13.02;9.35;;;486.50;2380.80;;;;;;5032703;28;20083;-84
2021/06/11 05:12:32;;;;;;;12.45;9.05;;;486.60;2380.80;;;;;;5032728;28;20017;-84
2021/06/11 05:14:57;;;;;;;9.88;8.10;;;486.40;2380.80;;;;;;5032891;28;20021;-84
2021/06/11 05:17:23;;;;;;;13.10;8.52;;;486.40;2380.80;;;;;;5032882;28;20032;-83
2021/06/11 05:19:49;;;;;;;12.07;8.38;;;486.60;2380.80;;;;;;5032911;28;20029;-83
2021/06/11 05:22:15;;;;;;;13.93;9.07;;;486.60;2380.80;;;;;;5034032;28;20033;-84
2021/06/11 05:24:41;;;;;;;10.15;8.27;;;486.50;2380.80;;;;;;5036631;28;20021;-83
2021/06/11 05:27:08;;;;;;;15.88;9.60;;;486.70;2380.80;;;;;;5037412;28;20017;-83
2021/06/11 05:29:33;;;;;;;13.50;8.38;;;486.80;2380.80;;;;;;5036787;28;20079;-84
2021/06/11 05:31:59;;;;;;;14.27;8.65;;;486.70;2380.80;;;;;;5036661;28;20029;-81
2021/06/11 05:34:25;;;;;;;13.45;8.43;;;486.80;2380.80;;;;;;5036507;28;20475;-84
2021/06/11 05:36:51;;;;;;;11.23;7.15;;;486.80;2380.80;;;;;;5036570;28;20022;-81
2021/06/11 05:39:17;;;;;;;12.10;8.02;;;487.00;2380.80;;;;;;5036169;28;20048;-80
2021/06/11 05:41:43;;;;;;;10.68;8.05;;;487.10;2380.80;;;;;;5036056;28;20052;-83
2021/06/11 05:44:09;;;;;;;10.63;8.52;;;487.30;2380.80;;;;;;5036088;28;20100;-82
2021/06/11 05:46:35;;;;;;;13.23;8.63;;;512.00;2380.80;;;;;;5035845;28;20021;-80
2021/06/11 05:49:01;;;;;;;13.93;9.38;;;512.20;2380.80;;;;;;5036046;28;20021;-81
2021/06/11 05:51:26;;;;;;;13.38;8.07;;;512.30;2380.80;;;;;;5036007;28;20025;-82
2021/06/11 05:53:52;;;;;;;10.60;8.13;;;512.40;2380.80;;;;;;5035908;28;20073;-82
2021/06/11 05:56:19;;;;;;;10.68;8.18;;;512.40;2380.80;;;;;;5035347;28;20084;-81
2021/06/11 05:58:46;;;;;;;10.75;7.80;;;512.40;2380.80;;;;;;5035827;28;20030;-81
2021/06/11 06:01:12;;;;;;;14.77;9.30;;;512.70;2380.80;;;;;;5038830;28;20433;-82
2021/06/11 06:03:38;;;;;;;13.20;9.30;;;512.90;2380.80;;;;;;5038966;28;20108;-84
2021/06/11 06:06:04;;;;;;;11.80;8.27;;;512.90;2380.80;;;;;;5056885;28;20085;-81
2021/06/11 06:08:30;;;;;;;12.90;9.07;;;537.60;2406.40;;;;;;5038997;28;20021;-82
2021/06/11 06:10:56;;;;;;;9.07;7.20;;;537.80;2406.40;;;;;;5038806;28;20028;-82
2021/06/11 06:13:21;;;;;;;9.52;7.05;;;537.70;2406.40;;;;;;5039030;28;20048;-80
2021/06/11 06:15:48;;;;;;;10.48;7.22;;;537.90;2406.40;;;;;;5039011;28;20089;-80
2021/06/11 06:18:14;;;;;;;16.98;7.43;;;537.80;2406.40;;;;;;5039134;28;20448;-83
2021/06/11 06:20:41;;;;;;;11.93;7.20;;;537.90;2406.40;;;;;;5038861;28;20027;-81
2021/06/11 06:23:07;;;;;;;7.80;6.47;;;537.90;2406.40;;;;;;5038786;28;20475;-82
2021/06/11 06:25:33;;;;;;;7.35;5.68;;;538.00;2406.40;;;;;;5038438;28;20021;-81
2021/06/11 06:27:58;;;;;;;7.10;5.70;;;538.00;2406.40;;;;;;5038205;28;20044;-82
2021/06/11 06:30:24;;;;;;;7.22;6.50;;;538.20;2406.40;;;;;;5038584;28;20415;-81
2021/06/11 06:32:50;;;;;;;8.70;6.40;;;538.20;2406.40;;;;;;5038520;28;20031;-83
2021/06/11 06:35:17;;;;;;;9.75;6.20;;;538.40;2406.40;;;;;;5038091;28;20017;-82
2021/06/11 06:37:44;;;;;;;8.65;6.28;;;538.40;2406.40;;;;;;5038344;28;20369;-82
2021/06/11 06:40:10;;;;;;;11.40;5.78;;;563.40;2432.00;;;;;;5038552;28;20360;-82
2021/06/11 06:42:36;;;;;;;6.55;5.63;;;538.40;2406.40;;;;;;5055857;28;20040;-80
2021/06/11 06:45:04;;;;;;;8.90;6.13;;;538.40;2406.40;;;;;;5037964;28;20341;-81
2021/06/11 06:47:30;;;;;;;8.02;5.25;;;563.20;2432.00;;;;;;5038214;28;20025;-82
2021/06/11 06:49:57;;;;;;;8.15;5.43;;;563.20;2432.00;;;;;;5055926;28;20021;-81
2021/06/11 06:52:23;;;;;;;6.82;6.10;;;563.30;2432.00;;;;;;5037846;28;20029;-81
2021/06/11 06:54:49;;;;;;;8.02;5.65;;;563.50;2432.00;;;;;;5038114;28;20027;-80
2021/06/11 06:57:15;;;;;;;7.38;5.13;;;563.60;2432.00;;;;;;5065062;28;20032;-79
2021/06/11 06:59:41;;;;;;;8.50;5.63;;;563.70;2432.00;;;;;;5066039;28;20025;-81
2021/06/11 07:02:07;;;;;;;6.47;5.43;;;563.80;2432.00;;;;;;5042455;28;20049;-78
2021/06/11 07:04:33;;;;;;;7.70;5.35;;;563.90;2432.00;;;;;;5037657;28;20098;-77
2021/06/11 07:06:59;;;;;;;7.55;5.40;;;564.00;2432.00;;;;;;5037260;28;20056;-77
2021/06/11 07:09:25;;;;;;;10.05;5.78;;;564.10;2432.00;;;;;;5055192;28;20025;-77
2021/06/11 07:11:52;;;;;;;14.52;6.47;;;588.80;2432.00;;;;;;5037354;28;20036;-77
2021/06/11 07:14:20;;;;;;;6.50;5.53;;;588.90;2432.00;;;;;;5055182;28;20737;-79
2021/06/11 07:16:48;;;;;;;8.73;5.68;;;589.00;2432.00;;;;;;5037485;28;20029;-80
2021/06/11 07:19:14;;;;;;;8.02;5.60;;;589.10;2432.00;;;;;;5037470;28;20021;-79
2021/06/11 07:21:39;;;;;;;7.75;6.03;;;589.10;2432.00;;;;;;5037021;28;20154;-77
2021/06/11 07:24:06;;;;;;;7.47;5.20;;;589.10;2432.00;;;;;;5037236;28;20036;-77
2021/06/11 07:26:32;;;;;;;6.80;5.90;;;589.10;2432.00;;;;;;5055000;28;20399;-77
2021/06/11 07:28:58;;;;;;;6.40;5.03;;;589.40;2432.00;;;;;;5042459;28;20032;-77
2021/06/11 07:31:25;;;;;;;7.63;5.38;;;589.50;2432.00;;;;;;5049777;28;20073;-77
2021/06/11 07:33:51;;;;;;;8.73;5.07;;;589.70;2432.00;;;;;;5070558;28;20021;-77
2021/06/11 07:36:17;;;;;;;7.47;4.70;;;589.70;2432.00;;;;;;5039618;28;20367;-76
2021/06/11 07:38:43;;;;;;;6.70;5.18;;;589.70;2432.00;;;;;;5072683;28;20024;-77
2021/06/11 07:41:09;;;;;;;8.00;5.35;;;589.70;2432.00;;;;;;5074194;28;20016;-77
2021/06/11 07:43:34;;;;;;;6.43;5.60;;;614.50;2432.00;;;;;;5071366;28;20025;-76
2021/06/11 07:46:00;;;;;;;16.00;5.85;;;614.60;2432.00;;;;;;5044388;28;20093;-76
2021/06/11 07:48:26;;;;;;;7.25;5.10;;;614.60;2432.00;;;;;;5036036;28;20512;-77
2021/06/11 07:50:52;;;;;;;8.77;5.53;;;614.70;2432.00;;;;;;5064013;28;20021;-76
2021/06/11 07:53:18;;;;;;;9.40;5.50;;;614.80;2432.00;;;;;;5045727;28;20119;-76
2021/06/11 07:55:44;;;;;;;11.27;5.55;;;614.80;2432.00;;;;;;5046948;28;20016;-76
2021/06/11 07:58:10;;;;;;;9.43;5.53;;;615.00;2432.00;;;;;;5048464;28;20024;-77
2021/06/11 08:00:35;;;;;;;6.55;5.28;;;614.90;2432.00;;;;;;5074445;28;20437;-76
2021/06/11 08:03:01;;;;;;;7.30;5.50;;;615.00;2432.00;;;;;;5049918;28;20037;-78
2021/06/11 08:05:28;;;;;;;8.32;5.07;;;615.20;2432.00;;;;;;5033150;28;20021;-77
2021/06/11 08:07:55;;;;;;;6.57;4.35;;;640.50;2432.00;;;;;;5042296;28;20092;-78
2021/06/11 08:10:21;;;;;;;15.35;4.63;;;615.20;2355.20;;;;;;5034038;28;20017;-77
2021/06/11 08:12:48;;;;;;;5.68;4.68;;;640.00;2278.40;;;;;;5033102;28;20524;-77
2021/06/11 08:15:14;;;;;;;5.53;4.30;;;640.30;2278.40;;;;;;5033317;28;20112;-77
2021/06/11 08:17:40;;;;;;;6.72;4.43;;;640.60;2201.60;;;;;;5032736;28;20049;-76
2021/06/11 08:20:08;;;;;;;17.40;8.73;;;640.90;2150.40;;;;;;5033052;28;20500;-77
2021/06/11 08:22:36;;;;;;;10.65;4.82;;;665.80;2176.00;;;;;;5032556;28;20060;-76
2021/06/11 08:25:04;;;;;;;6.63;5.22;;;666.00;2176.00;;;;;;5034163;28;20022;-77
2021/06/11 08:27:29;;;;;;;5.97;4.85;;;666.20;2176.00;;;;;;5034177;28;20429;-78
2021/06/11 08:29:55;;;;;;;7.05;5.22;;;666.50;2176.00;;;;;;5032501;28;20064;-78
2021/06/11 08:32:21;;;;;;;5.60;4.50;;;691.20;2150.40;;;;;;5032750;28;20025;-77
2021/06/11 08:34:47;;;;;;;9.07;4.53;;;691.30;2073.60;;;;;;5034008;28;20096;-77
2021/06/11 08:37:13;;;;;;;4.93;4.07;;;691.60;2073.60;;;;;;5032258;28;20445;-77
2021/06/11 08:39:39;;;;;;;6.85;4.40;;;691.60;1996.80;;;;;;5050275;28;20028;-76
2021/06/11 08:42:08;;;;;;;24.52;6.05;;;691.30;2048.00;;;;;;5051132;28;20035;-77
2021/06/11 08:44:36;;;;;;;10.35;5.88;;;691.30;2022.40;;;;;;5051389;28;20082;-76
2021/06/11 08:47:02;;;;;;;7.47;4.85;;;666.50;2048.00;;;;;;5044518;28;20029;-77
2021/06/11 08:49:28;;;;;;;6.20;5.10;;;666.00;2048.00;;;;;;5044379;28;20121;-78
2021/06/11 08:51:59;;;;;;;7.20;4.55;;;665.70;2124.80;;;;;;5038080;28;20107;-79
2021/06/11 08:54:26;;;;;;;8.80;5.47;;;665.60;2176.00;;;;;;5038621;28;20024;-77
2021/06/11 08:56:53;;;;;;;18.63;7.50;;;640.50;2304.00;;;;;;5040988;28;20074;-78
2021/06/11 08:59:20;;;;;;;7.93;6.38;;;640.00;2432.00;;;;;;5049497;28;20226;-78
2021/06/11 09:01:45;;;;;;;10.30;7.20;;;615.10;2432.00;;;;;;5047875;28;20110;-76
2021/06/11 09:04:12;;;;;;;12.13;7.07;;;614.70;2432.00;;;;;;5048810;28;20116;-74
2021/06/11 09:06:37;;;;;;;11.25;7.07;;;614.40;2432.00;;;;;;5033943;28;20021;-76
2021/06/11 09:09:05;;;;;;;12.25;7.07;;;589.50;2432.00;;;;;;5034055;28;20471;-76
2021/06/11 09:11:36;;;;;;;10.95;6.88;;;589.20;2432.00;;;;;;5032040;28;20029;-76
2021/06/11 09:14:05;;;;;;;8.32;6.32;;;564.00;2432.00;;;;;;5032436;28;20442;-77
2021/06/11 09:16:49;;;;;;;8.18;6.45;;;563.60;2432.00;;;;;;5032341;28;20043;-74
2021/06/11 09:19:18;;;;;;;16.23;8.07;;;563.30;2432.00;;;;;;5031953;28;20028;-75
2021/06/11 09:21:47;;;;;;;15.13;9.95;;;538.50;2406.40;;;;;;5033454;28;20033;-74
2021/06/11 09:24:30;;;;;;;19.75;10.77;;;538.40;2406.40;;;;;;5032290;28;20018;-75
2021/06/11 09:29:56;;;;;;;20.20;12.20;;;538.00;2406.40;;;;;;5028247;28;20083;-79
2021/06/11 09:32:28;;;;;;;17.02;10.95;;;537.90;2406.40;;;;;;5033201;28;20025;-76
2021/06/11 09:34:56;;;;;;;18.70;11.20;;;538.00;2406.40;;;;;;5032196;28;20032;-75
2021/06/11 09:37:29;;;;;;;13.45;9.93;;;538.00;2406.40;;;;;;5033330;28;20076;-75
2021/06/11 09:40:09;;;;;;;13.73;10.40;;;538.00;2406.40;;;;;;5031758;28;20029;-76
2021/06/11 09:42:37;;;;;;;13.98;8.55;;;538.00;2406.40;;;;;;5032014;28;20033;-79
2021/06/11 09:45:12;;;;;;;17.23;9.48;;;538.00;2406.40;;;;;;5031980;28;20024;-75
2021/06/11 09:47:40;;;;;;;11.73;9.68;;;538.10;2406.40;;;;;;5033289;28;20092;-75
2021/06/11 09:50:11;;;;;;;15.13;9.95;;;538.50;2406.40;;;;;;5031972;28;20028;-76
2021/06/11 09:53:07;;;;;;;11.52;8.50;;;563.70;2432.00;;;;;;5035652;28;20484;-75
2021/06/11 09:55:39;;;;;;;18.63;12.75;;;588.80;2432.00;;;;;;5041161;28;20025;-76
2021/06/11 09:58:19;;;;;;;15.63;10.10;;;588.80;2432.00;;;;;;5040520;28;20022;-78
2021/06/11 10:00:56;;;;;;;13.10;9.13;;;564.00;2432.00;;;;;;5038699;28;20472;-76
2021/06/11 10:03:30;;;;;;;15.10;9.00;;;564.10;2432.00;;;;;;5039557;28;20365;-77
2021/06/11 10:05:58;;;;;;;10.15;7.55;;;588.90;2432.00;;;;;;5040234;28;20100;-76
2021/06/11 10:08:25;;;;;;;6.80;6.10;;;589.20;2432.00;;;;;;5044326;28;20025;-77
2021/06/11 10:10:55;;;;;;;10.30;7.82;;;589.40;2432.00;;;;;;5055734;28;20028;-77
2021/06/11 10:13:22;;;;;;;8.75;6.43;;;614.50;2432.00;;;;;;5055233;28;20040;-76
2021/06/11 10:15:51;;;;;;;11.05;6.25;;;614.50;2432.00;;;;;;5054982;28;20028;-76
2021/06/11 10:18:17;;;;;;;8.35;5.13;;;614.70;2432.00;;;;;;5054696;28;20025;-76
2021/06/11 10:20:43;;;;;;;8.25;5.30;;;615.00;2432.00;;;;;;5044163;28;20025;-77
2021/06/11 10:23:13;;;;;;;7.45;5.90;;;614.80;2432.00;;;;;;5047028;28;20025;-77
2021/06/11 10:25:53;;;;;;;7.25;5.63;;;615.20;2432.00;;;;;;5055049;28;20021;-76
2021/06/11 10:28:38;;;;;;;8.70;6.32;;;640.00;2432.00;;;;;;5056344;28;20070;-77
2021/06/11 10:31:11;;;;;;;8.50;6.90;;;615.30;2432.00;;;;;;5055129;28;20071;-76
2021/06/11 10:33:50;;;;;;;8.90;6.55;;;615.20;2432.00;;;;;;5054858;28;20025;-77
2021/06/11 10:36:30;;;;;;;9.38;6.63;;;615.30;2432.00;;;;;;5056166;28;20423;-76
2021/06/11 10:39:02;;;;;;;8.95;6.88;;;615.00;2432.00;;;;;;5052644;28;20048;-77
2021/06/11 10:41:49;;;;;;;8.82;7.80;;;615.00;2432.00;;;;;;5054577;28;20047;-77
2021/06/11 10:44:33;;;;;;;13.50;7.03;;;615.10;2432.00;;;;;;5054311;28;20021;-77
2021/06/11 10:47:17;;;;;;;13.40;8.40;;;615.20;2432.00;;;;;;5055933;28;20067;-76
2021/06/11 10:49:58;;;;;;;9.40;6.60;;;614.80;2432.00;;;;;;5054304;28;20469;-76
2021/06/11 10:52:34;;;;;;;9.80;7.67;;;614.80;2432.00;;;;;;5047289;28;20024;-76
2021/06/11 10:55:18;;;;;;;12.05;8.45;;;614.80;2432.00;;;;;;5044360;28;20259;-76
2021/06/11 10:57:58;;;;;;;7.35;6.30;;;614.90;2432.00;;;;;;5043751;28;20016;-76
2021/06/11 11:00:27;;;;;;;10.02;7.20;;;615.00;2432.00;;;;;;5039948;28;20487;-78
2021/06/11 11:02:57;;;;;;;9.55;6.80;;;614.80;2432.00;;;;;;5034294;28;20041;-78
2021/06/11 11:05:32;;;;;;;14.90;8.48;;;614.90;2432.00;;;;;;5034072;28;20025;-77
2021/06/11 11:08:00;;;;;;;10.10;6.95;;;615.00;2432.00;;;;;;5034499;28;20356;-78
2021/06/11 11:10:33;;;;;;;7.55;6.60;;;615.10;2432.00;;;;;;5034144;28;20025;-77
2021/06/11 11:13:07;;;;;;;7.43;5.47;;;615.10;2432.00;;;;;;5034395;28;20029;-78
2021/06/11 11:15:35;;;;;;;7.13;5.25;;;615.10;2432.00;;;;;;5034170;28;20021;-78
2021/06/11 11:18:03;;;;;;;6.80;4.85;;;615.30;2432.00;;;;;;5033929;28;20064;-75
2021/06/11 11:20:33;;;;;;;6.90;4.20;;;640.00;2432.00;;;;;;5034189;28;20116;-75
2021/06/11 11:23:00;;;;;;;9.70;5.22;;;615.20;2432.00;;;;;;5033953;28;20471;-78
2021/06/11 11:25:27;;;;;;;10.25;5.65;;;640.20;2432.00;;;;;;5033756;28;20124;-78
2021/06/11 11:27:55;;;;;;;5.82;3.92;;;640.20;2432.00;;;;;;5035219;28;20017;-78
2021/06/11 11:30:26;;;;;;;6.80;4.68;;;640.40;2304.00;;;;;;5034976;28;20457;-78
2021/06/11 11:32:55;;;;;;;7.32;5.35;;;640.40;2329.60;;;;;;5034814;28;20027;-78
2021/06/11 11:35:22;;;;;;;8.63;4.03;;;640.50;2432.00;;;;;;5034833;28;20013;-78
2021/06/11 11:37:51;;;;;;;9.55;4.60;;;640.60;2304.00;;;;;;5041981;28;20044;-78
2021/06/11 11:40:18;;;;;;;5.53;3.55;;;640.60;2432.00;;;;;;5042115;28;20025;-78
2021/06/11 11:42:44;;;;;;;5.55;3.15;;;640.70;2252.80;;;;;;5039989;28;20361;-78
2021/06/11 11:45:11;;;;;;;5.78;3.60;;;640.80;2252.80;;;;;;5035259;28;20047;-78
2021/06/11 11:47:37;;;;;;;10.80;3.95;;;640.70;2201.60;;;;;;5036197;28;20036;-78
2021/06/11 11:50:04;;;;;;;7.97;4.00;;;640.80;2201.60;;;;;;5035138;28;20349;-79
2021/06/11 11:52:32;;;;;;;6.00;3.33;;;640.80;2150.40;;;;;;5035865;28;20021;-78
2021/06/11 11:54:59;;;;;;;6.95;3.65;;;640.80;2176.00;;;;;;5052892;28;20052;-77
2021/06/11 11:57:25;;;;;;;5.10;3.85;;;640.70;2150.40;;;;;;5052924;28;20056;-78
2021/06/11 11:59:51;;;;;;;7.30;6.25;;;640.70;2150.40;;;;;;5050139;28;20028;-78
2021/06/11 12:02:19;;;;;;;10.60;4.20;;;640.60;2150.40;;;;;;5049641;28;20370;-78
2021/06/11 12:04:45;;;;;;;12.05;4.40;;;640.50;2176.00;;;;;;5050239;28;20044;-78
2021/06/11 12:07:11;;;;;;;6.72;4.88;;;640.10;2227.20;;;;;;5052901;28;20067;-76
2021/06/11 12:09:36;;;;;;;10.80;4.70;;;640.20;2304.00;;;;;;5053208;28;20021;-76
2021/06/11 12:12:03;;;;;;;5.80;4.40;;;640.20;2252.80;;;;;;5053070;28;20468;-77
2021/06/11 12:14:29;;;;;;;6.47;3.80;;;640.30;2304.00;;;;;;5052563;28;20028;-78
2021/06/11 12:16:54;;;;;;;17.95;6.55;;;640.20;2227.20;;;;;;5054252;28;20361;-78
2021/06/11 12:19:21;;;;;;;7.70;4.13;;;640.20;2278.40;;;;;;5052892;28;20364;-77
2021/06/11 12:21:46;;;;;;;7.45;4.57;;;640.20;2252.80;;;;;;5053798;28;20053;-76
2021/06/11 12:24:12;;;;;;;9.00;4.60;;;640.40;2329.60;;;;;;5052850;28;20475;-79